Time,TemperatureF,DewpointF,PressureIn,WindDirection,WindDirectionDegrees,WindSpeedMPH,WindSpeedGustMPH,Humidity,HourlyPrecipIn,Conditions,Clouds,dailyrainin,SoftwareType,DateUTC
2013-03-15 00:14:00,47.6,45.0,30.12,SSW,199,0.0,0.0,92,0.00,,,0.00,weatherlink.com 1.10,2013-03-15 07:14:00,
2013-03-15 00:29:00,47.2,46.0,30.13,SSW,198,0.0,0.0,94,0.00,,,0.00,weatherlink.com 1.10,2013-03-15 07:29:00,
2013-03-15 00:44:00,47.0,45.0,30.12,SSW,198,0.0,0.0,94,0.00,,,0.00,weatherlink.com 1.10,2013-03-15 07:44:00,
2013-03-15 00:59:00,46.8,45.0,30.12,SSW,198,0.0,0.0,94,0.00,,,0.00,weatherlink.com 1.10,2013-03-15 07:59:00,
2013-03-15 01:14:00,46.8,46.0,30.12,SSW,198,0.0,0.0,95,0.00,,,0.00,weatherlink.com 1.10,2013-03-15 08:14:00,
2013-03-15 01:29:00,46.0,44.0,30.12,SSW,199,0.0,0.0,94,0.00,,,0.00,weatherlink.com 1.10,2013-03-15 08:29:00,
2013-03-15 01:44:00,45.6,44.0,30.13,SSW,199,0.0,0.0,95,0.00,,,0.00,weatherlink.com 1.10,2013-03-15 08:44:00,
2013-03-15 01:59:00,46.9,46.0,30.12,SSW,213,0.0,1.0,97,0.00,,,0.00,weatherlink.com 1.10,2013-03-15 08:59:00,
2013-03-15 02:14:00,46.4,45.0,30.12,SSW,212,0.0,0.0,95,0.00,,,0.00,weatherlink.com 1.10,2013-03-15 09:14:00,
2013-03-15 02:30:00,46.0,45.0,30.11,SSW,212,0.0,0.0,96,0.00,,,0.00,weatherlink.com 1.10,2013-03-15 09:30:00,
2013-03-15 02:44:00,45.4,44.0,30.11,SSW,213,0.0,0.0,96,0.00,,,0.00,weatherlink.com 1.10,2013-03-15 09:44:00,
2013-03-15 02:59:00,45.0,44.0,30.10,SSW,212,0.0,0.0,96,0.00,,,0.00,weatherlink.com 1.10,2013-03-15 09:59:00,
2013-03-15 03:14:00,45.4,44.0,30.10,SSW,212,0.0,0.0,96,0.00,,,0.00,weatherlink.com 1.10,2013-03-15 10:14:00,
2013-03-15 03:29:00,45.0,44.0,30.10,SSW,212,0.0,0.0,96,0.00,,,0.00,weatherlink.com 1.10,2013-03-15 10:29:00,
2013-03-15 03:44:00,44.1,43.0,30.12,SSW,213,0.0,0.0,96,0.00,,,0.00,weatherlink.com 1.10,2013-03-15 10:44:00,
2013-03-15 03:59:00,44.5,44.0,30.12,SSW,213,0.0,0.0,97,0.00,,,0.00,weatherlink.com 1.10,2013-03-15 10:59:00,
2013-03-15 04:14:00,44.9,44.0,30.11,South,176,0.0,0.0,97,0.00,,,0.00,weatherlink.com 1.10,2013-03-15 11:14:00,
2013-03-15 04:29:00,44.5,44.0,30.11,South,177,0.0,0.0,96,0.00,,,0.00,weatherlink.com 1.10,2013-03-15 11:29:00,
2013-03-15 04:44:00,44.4,44.0,30.10,South,178,0.0,0.0,97,0.00,,,0.00,weatherlink.com 1.10,2013-03-15 11:44:00,
2013-03-15 04:59:00,43.7,43.0,30.10,South,177,0.0,0.0,96,0.00,,,0.00,weatherlink.com 1.10,2013-03-15 11:59:00,
2013-03-15 05:14:00,43.4,43.0,30.11,South,178,0.0,0.0,97,0.00,,,0.00,weatherlink.com 1.10,2013-03-15 12:14:00,
2013-03-15 05:29:00,43.5,43.0,30.10,South,177,0.0,0.0,97,0.00,,,0.00,weatherlink.com 1.10,2013-03-15 12:29:00,
2013-03-15 05:44:00,44.2,44.0,30.10,South,178,0.0,0.0,98,0.00,,,0.00,weatherlink.com 1.10,2013-03-15 12:44:00,
2013-03-15 05:59:00,44.3,44.0,30.09,South,177,0.0,0.0,97,0.00,,,0.00,weatherlink.com 1.10,2013-03-15 12:59:00,
2013-03-15 06:14:00,44.2,43.0,30.09,South,176,0.0,0.0,97,0.00,,,0.00,weatherlink.com 1.10,2013-03-15 13:14:00,
2013-03-15 06:29:00,44.2,43.0,30.10,South,176,0.0,0.0,97,0.00,,,0.00,weatherlink.com 1.10,2013-03-15 13:29:00,
2013-03-15 06:44:00,44.8,44.0,30.10,South,177,0.0,0.0,98,0.00,,,0.00,weatherlink.com 1.10,2013-03-15 13:44:00,
2013-03-15 06:59:00,44.7,44.0,30.11,South,178,0.0,0.0,97,0.00,,,0.00,weatherlink.com 1.10,2013-03-15 13:59:00,
2013-03-15 07:14:00,45.0,45.0,30.11,South,177,0.0,0.0,98,0.00,,,0.00,weatherlink.com 1.10,2013-03-15 14:14:00,
2013-03-15 07:30:00,45.2,45.0,30.11,South,177,0.0,0.0,98,0.00,,,0.00,weatherlink.com 1.10,2013-03-15 14:30:00,
2013-03-15 07:45:00,46.2,46.0,30.11,South,178,0.0,0.0,98,0.00,,,0.00,weatherlink.com 1.10,2013-03-15 14:45:00,
2013-03-15 08:00:00,46.9,46.0,30.10,South,178,0.0,0.0,98,0.00,,,0.00,weatherlink.com 1.10,2013-03-15 15:00:00,
2013-03-15 08:15:00,48.5,48.0,30.11,South,177,0.0,0.0,98,0.00,,,0.00,weatherlink.com 1.10,2013-03-15 15:15:00,
2013-03-15 08:30:00,49.4,49.0,30.10,South,178,0.0,1.0,98,0.00,,,0.00,weatherlink.com 1.10,2013-03-15 15:30:00,
2013-03-15 08:45:00,49.8,49.0,30.10,South,177,0.0,1.0,97,0.00,,,0.00,weatherlink.com 1.10,2013-03-15 15:45:00,
2013-03-15 09:00:00,50.5,50.0,30.10,SSW,210,0.0,1.0,97,0.00,,,0.00,weatherlink.com 1.10,2013-03-15 16:00:00,
2013-03-15 09:15:00,51.0,50.0,30.11,SSE,158,0.0,1.0,96,0.00,,,0.00,weatherlink.com 1.10,2013-03-15 16:15:00,
2013-03-15 09:30:00,51.8,51.0,30.12,South,176,0.0,0.0,95,0.00,,,0.00,weatherlink.com 1.10,2013-03-15 16:30:00,
2013-03-15 09:45:00,53.5,51.0,30.12,South,176,0.0,0.0,91,0.00,,,0.00,weatherlink.com 1.10,2013-03-15 16:45:00,
2013-03-15 10:00:00,54.9,51.0,30.12,South,179,0.0,1.0,86,0.00,,,0.00,weatherlink.com 1.10,2013-03-15 17:00:00,
2013-03-15 10:15:00,56.1,50.0,30.12,SW,228,0.0,1.0,80,0.00,,,0.00,weatherlink.com 1.10,2013-03-15 17:15:00,
2013-03-15 10:30:00,57.3,51.0,30.12,NNE,30,1.0,2.0,78,0.00,,,0.00,weatherlink.com 1.10,2013-03-15 17:30:00,
2013-03-15 10:45:00,58.3,50.0,30.12,West,280,1.0,2.0,75,0.00,,,0.00,weatherlink.com 1.10,2013-03-15 17:45:00,
2013-03-15 11:00:00,59.4,51.0,30.12,WNW,299,0.0,1.0,74,0.00,,,0.00,weatherlink.com 1.10,2013-03-15 18:00:00,
2013-03-15 11:15:00,60.1,51.0,30.12,WNW,300,0.0,2.0,72,0.00,,,0.00,weatherlink.com 1.10,2013-03-15 18:15:00,
2013-03-15 11:45:00,61.5,50.0,30.11,WSW,252,1.0,3.0,66,0.00,,,0.00,weatherlink.com 1.10,2013-03-15 18:45:00,
2013-03-15 12:00:00,63.6,52.0,30.10,WSW,250,0.0,2.0,65,0.00,,,0.00,weatherlink.com 1.10,2013-03-15 19:00:00,
2013-03-15 12:15:00,64.0,51.0,30.10,West,263,0.0,3.0,64,0.00,,,0.00,weatherlink.com 1.10,2013-03-15 19:15:00,
2013-03-15 12:30:00,66.2,51.0,30.10,SSE,162,0.0,2.0,58,0.00,,,0.00,weatherlink.com 1.10,2013-03-15 19:30:00,
2013-03-15 12:46:00,67.3,52.0,30.09,East,88,1.0,4.0,59,0.00,,,0.00,weatherlink.com 1.10,2013-03-15 19:46:00,
2013-03-15 13:16:00,68.0,52.0,30.08,West,271,1.0,2.0,57,0.00,,,0.00,weatherlink.com 1.10,2013-03-15 20:16:00,
2013-03-15 13:46:00,66.7,51.0,30.08,SSE,160,0.0,3.0,57,0.00,,,0.00,weatherlink.com 1.10,2013-03-15 20:46:00,
2013-03-15 15:46:00,66.6,52.0,30.06,West,280,0.0,8.0,60,0.00,,,0.00,weatherlink.com 1.10,2013-03-15 22:46:00,
2013-03-15 16:01:00,67.5,51.0,30.05,NW,309,1.0,4.0,56,0.00,,,0.00,weatherlink.com 1.10,2013-03-15 23:01:00,
2013-03-15 16:16:00,67.4,51.0,30.05,WNW,295,0.0,4.0,56,0.00,,,0.00,weatherlink.com 1.10,2013-03-15 23:16:00,
2013-03-15 16:46:00,63.9,51.0,30.06,West,270,4.0,9.0,63,0.00,,,0.00,weatherlink.com 1.10,2013-03-15 23:46:00,
2013-03-15 17:01:00,62.8,51.0,30.06,East,92,2.0,4.0,66,0.00,,,0.00,weatherlink.com 1.10,2013-03-16 00:01:00,
2013-03-15 17:16:00,62.5,52.0,30.05,WSW,253,2.0,6.0,68,0.00,,,0.00,weatherlink.com 1.10,2013-03-16 00:16:00,
2013-03-15 17:31:00,62.8,52.0,30.05,SSW,200,1.0,3.0,68,0.00,,,0.00,weatherlink.com 1.10,2013-03-16 00:31:00,
2013-03-15 18:01:00,60.3,51.0,30.05,North,8,1.0,5.0,72,0.00,,,0.00,weatherlink.com 1.10,2013-03-16 01:01:00,
2013-03-15 18:16:00,59.9,51.0,30.05,NNW,341,0.0,3.0,73,0.00,,,0.00,weatherlink.com 1.10,2013-03-16 01:16:00,
2013-03-15 18:31:00,59.5,51.0,30.04,WSW,246,0.0,1.0,73,0.00,,,0.00,weatherlink.com 1.10,2013-03-16 01:31:00,
2013-03-15 18:46:00,58.9,51.0,30.04,SSE,159,0.0,3.0,75,0.00,,,0.00,weatherlink.com 1.10,2013-03-16 01:46:00,
2013-03-15 19:16:00,57.6,51.0,30.04,SSE,151,0.0,1.0,78,0.00,,,0.00,weatherlink.com 1.10,2013-03-16 02:16:00,
2013-03-15 19:31:00,56.8,51.0,30.05,WNW,283,1.0,1.0,80,0.00,,,0.00,weatherlink.com 1.10,2013-03-16 02:31:00,
2013-03-15 19:46:00,56.0,51.0,30.05,WSW,248,0.0,3.0,83,0.00,,,0.00,weatherlink.com 1.10,2013-03-16 02:46:00,
2013-03-15 20:01:00,55.2,51.0,30.04,WSW,248,0.0,0.0,84,0.00,,,0.00,weatherlink.com 1.10,2013-03-16 03:01:00,
2013-03-15 20:16:00,54.3,50.0,30.04,West,273,0.0,0.0,85,0.00,,,0.00,weatherlink.com 1.10,2013-03-16 03:16:00,
2013-03-15 20:31:00,53.6,50.0,30.04,West,271,0.0,1.0,87,0.00,,,0.00,weatherlink.com 1.10,2013-03-16 03:31:00,
2013-03-15 20:46:00,53.2,50.0,30.04,West,273,0.0,0.0,88,0.00,,,0.00,weatherlink.com 1.10,2013-03-16 03:46:00,
2013-03-15 21:16:00,52.7,50.0,30.05,WSW,252,0.0,1.0,90,0.00,,,0.00,weatherlink.com 1.10,2013-03-16 04:16:00,
2013-03-15 21:31:00,52.6,50.0,30.06,WSW,255,0.0,1.0,90,0.00,,,0.00,weatherlink.com 1.10,2013-03-16 04:31:00,
2013-03-15 21:46:00,52.6,50.0,30.07,SW,222,0.0,2.0,90,0.00,,,0.00,weatherlink.com 1.10,2013-03-16 04:46:00,
2013-03-15 22:01:00,52.2,49.0,30.07,SW,225,0.0,1.0,90,0.00,,,0.00,weatherlink.com 1.10,2013-03-16 05:01:00,
2013-03-15 22:16:00,51.8,49.0,30.07,SW,229,0.0,2.0,90,0.00,,,0.00,weatherlink.com 1.10,2013-03-16 05:16:00,
2013-03-15 22:31:00,51.1,49.0,30.07,SW,228,0.0,0.0,91,0.00,,,0.00,weatherlink.com 1.10,2013-03-16 05:31:00,
2013-03-15 22:46:00,50.8,49.0,30.07,WSW,253,0.0,1.0,92,0.00,,,0.00,weatherlink.com 1.10,2013-03-16 05:46:00,
2013-03-15 23:01:00,50.5,48.0,30.07,West,273,0.0,0.0,92,0.00,,,0.00,weatherlink.com 1.10,2013-03-16 06:01:00,
2013-03-15 23:16:00,49.9,48.0,30.07,West,273,0.0,0.0,92,0.00,,,0.00,weatherlink.com 1.10,2013-03-16 06:16:00,
2013-03-15 23:31:00,49.6,48.0,30.08,West,273,0.0,1.0,94,0.00,,,0.00,weatherlink.com 1.10,2013-03-16 06:31:00,
2013-03-15 23:46:00,49.5,48.0,30.08,West,273,0.0,0.0,94,0.00,,,0.00,weatherlink.com 1.10,2013-03-16 06:46:00,